انتخاب استان
  • All
  • آذربايجان شرقی
  • آذربايجان غربی
  • اردبيل
  • اصفهان
  • البرز
  • ايلام
  • بوشهر
  • تهران
  • چارمحال بختیاری
  • خراسان جتوبی
  • خراسان رضوی
  • خراسان شمالی
  • خوزستان
  • زنجان
  • سمنان
  • سيستان و بلوجستان
  • فارس
  • قزوین
  • قم
  • کردستان
  • کرمان
  • کرمانشاه
  • کهگيلويه بويراحمد
  • گلستان
  • گيلان
  • لرستان
  • مازندران
  • متفرقه
  • مرکزی
  • نیروی هوایی
  • هرمزگان
  • همدان
  • يزد
ساعت گذشتهنمایش خطاهای
مجموع خطاهای دریافتی 5
pp1pp
لیست خطاهای دریافتی طی 3 ساعت گذشته از 2018-05-22 14:46:47.0 تا 2018-05-22 17:46:47.0
نام استان
کد ایستگاه
تاریخ پیام
متن پیام
خطای اتفاق افتاده
pp1pp
تهران
OIKE
2018-05-22 15:00:00.0
SAIR34 OIII 221500
METAR BUBE 221500Z NIL=
METAR CHSK 221500Z NIL=
METAR CHSV 221500Z NIL=
METAR ESEA 221500Z NIL=
METAR ESEN 221500Z NIL=
METAR ESEQ 221500Z NIL=
METAR ESES 221500Z NIL=
METAR FASL 221500Z NIL=
METAR FSSA 221500Z NIL=
METAR GIRJ 221500Z NIL=
METAR ILIA 221500Z NIL=
METAR ILID 221450Z AUTO 27006KT //// // ////// 39/M03 Q1010=
METAR KEBA 221500Z NIL=
METAR KEKB 221500Z NIL=
METAR KEKH 221500Z NIL=
METAR KEKI 221500Z NIL=
METAR KEKS 221500Z NIL=
METAR KEKT 221500Z NIL=
METAR KHAB 221500Z NIL=
METAR KHAE 221500Z NIL=
METAR KHAS 221500Z NIL=
METAR KHMA 221500Z NIL=
METAR KHMI 221450Z AUTO 02006KT //// // ////// 22/M01 Q1023=
METAR KHMJ 221450Z AUTO 04010KT //// // ////// 27/M02 Q1019=
METAR KHMK 221450Z AUTO 05010KT //// // ////// 28/M01 Q1019=
METAR KHMT 221500Z NIL=
METAR KHMC 221500Z NIL=
METAR KHML 221500Z NIL=
METAR KMDA 221500Z NIL=
METAR KOYD 221500Z NIL=
METAR OIAA 221500Z 09006KT CAVOK 40/10 Q1006=
METAR OIAD 221500Z NIL=
METAR OIAG 221500Z NIL=
METAR OIAH 221500Z 28008KT CAVOK 34/M02 Q1012=
METAR OIAI 221500Z NIL=
METAR OIAJ 221500Z NIL=
METAR OIAM 221500Z 18006KT CAVOK 37/13 Q1007=
METAR OIAR 221500Z NIL=
METAR OIAW 221454Z 30002KT 8000 NSC 38/10 Q1006=
METAR OIBQ 221450Z 29006KT CAVOK 32/23 Q1008=
METAR OIFM 221500Z 32012KT 9999 TS SCT030CB SCT035 20/07 Q1023
A3021=
METAR OIFS 221450Z 30008KT 7000 FEW035CB SCT040 BKN080 18/03 Q1024
RESHRA=
METAR OIKE 221500Z 27012KT 9999 SCT035CB FEW040 27/03 Q101=
METAR OIKK 221500Z 07012KT 9999 BKN040 26/M09 Q1020 A3014=
METAR OIMB 221450Z 34008KT 9999 FEW040 SCT100 26/M06 Q1020=
METAR OISA 221500Z NIL=
METAR OISS 221450Z 25010KT 9999 SCT035TCU BKN200 29/M04 Q1018
A3006=
METAR OISY 221500Z 21006KT 9999 FEW040 24/M01 Q1022=
METAR OIYY 221450Z 32006KT 9999 VCSH FEW040CB BKN190 30/01 Q1018=
METAR OIZB 221500Z 36008KT CAVOK 31/M05 Q1010=
METAR YAYA 221500Z NIL=
METAR YAYB 221500Z NIL=
METAR YAYG 221500Z NIL=
METAR YAYM 221500Z NIL=
حرف يا عدد غير قابل انتظار
تهران
OIMD
2018-05-22 16:00:00.0
SAIR33 OIII 221600
METAR ALKK 221552Z 12002KT 9999 SCT040 19/08 Q1022=
METAR ESED 221600Z 30010KT 9999 SCT030CB BKN035 15/06 Q1023 RESHRA=
METAR ESEK 221600Z 03010KT 9999 FEW040 30/01 Q1015=
METAR KEKL 221550Z 13008KT 9999 SCT040 BKN090 22/13 Q1019=
METAR KEKP 221550Z 00000KT 9999 FEW046 SCT190 30/13 Q1013=
METAR KEKR 221551Z 02008KT 9999 FEW035CB SCT040 BKN090 20/07 Q1019
RETSRA=
METAR KHMF 221550Z 36006KT 9999 SCT035 25/M03 Q1020=
METAR KHMG 221600Z 00000KT CAVOK 21/03 Q1019=
METAR KHMH 221550Z 01006KT 9999 SCT035 SCT190 22/M01 Q1021=
METAR KORG 221554Z 12006KT 9999 FEW040 17/10 Q1024=
METAR LOKD 221550Z AUTO 01008KT //// // ////// 30/10 Q1013=
METAR LOKI 221550Z 06012KT 9999 SCT040 BKN090 17/04 Q1026=
METAR LOKT 221550Z 36002KT 9999 SCT040 BKN090 19/09 Q1021=
METAR LONO 221550Z 28016KT 9999 SCT040 BKN090 16/06 Q1024=
METAR MAAA 221600Z 00000KT 8000 NSC 18/12 Q1024=
METAR MASA 221600Z VRB02KT CAVOK 26/19 Q0101=
METAR MASK 221600Z 06006KT CAVOK 17/12 Q1025=
METAR OICC 221550Z 11006KT 9000 -TS SCT035CB SCT040 20/08 Q1019
A3009=
METAR OICI 221600Z 26006KT 9999 SCT040 24/06 Q1019 A3010=
METAR OICJ 221550Z 00000KT 8000 NSC 20/10 Q1023=
METAR OICK 221550Z 10006KT 9999 FEW035CB SCT040 22/09 Q1017=
METAR OICM 221550Z AUTO 18008KT //// // ////// 37/04 Q1009=
METAR OIFK 221600Z 00000KT 9999 FEW030CB SCT035 BKN100 21/12 Q1020=
METAR OIHH 221555Z 12008KT 9999 FEW040 BKN200 15/10 Q1022=
METAR OIHM 221550Z 15004KT 9999 FEW040 SCT090 17/08 Q1024=
METAR OIHS 221600Z NIL=
METAR OIID 221600Z NIL=
METAR OIHQ 221550Z 22010KT 9999 FEW040CB BKN045 20/09 Q1020=
METAR OIIE 221600Z 16006KT 9999 FEW035CB FEW040 BKN100 19/15 Q1020=
METAR OIII 221600Z 09008KT 9999 FEW030CB SCT035 BKN100 20/11
Q1021 A3017=
METAR OIIS 221600Z 27008KT 7000 -SHRA SCT035CB SCT035 23/07 Q1020=
METAR OIIU 221600Z NIL=
METAR OIMD 22221550Z 00000KT 9999 FEW040 SCT100 27/M02 Q1015=
METAR OIMQ 221550Z 00000KT 9999 FEW040 SCT200 26/01 Q1018=
METAR QOQM 221551Z 10006KT 7000 FEW030CB SCT035 OVC090 21/13 Q1021=
METAR SESG 221600Z 27010KT 8000 SCT035 BKN090 20/11 Q1023 RERA=
METAR TETB 221554Z 00000KT 9999 SCT030CB SCT035 10/07 Q1030=
METAR TETF 221550Z AUTO 03004KT //// // ////// 11/08 Q1028=
METAR OIYR 221550Z AUTO 01008KT //// // ////// 28/M01 Q1017=
METAR TETG 221559Z 02006KT 9999 SCT030CB OVC100 19/06 Q1024=
METAR YAYT 221600Z 05008KT CAVOK 31/M03 Q1014=
فشار سطح دريا خارج از حداست (900 تا 1058)
فارس
40828
2018-05-22 15:00:00.0
SIIR41 OISS 221500
AAXX 22151
40818 42665 60904 10226 20011 38004 40088 55002 84306 333 10254
81935 83640 86270 555 10116 29024 66666 00264 10268 20248 30226
50210 90190=
40828 42665 70000 10190 20040 37758 40102 57010 70291 83406 333
10240 83640 87270 555 10110 29037 66666 00220 10216 20210 30200
50196 90172=
40844 42660 22604 10274 20019 38363 40081 55000 82400 333 10298
82640 555 10140 29019 66666 00284 10272 20250 30232 50212 90196=
40847 41660 50000 10254 20055 38413 40088 55001 72582 83370 333
10305 81935 82640 85360 555 10144 29028 66666 00266 10256 20242
30232 50212 90192=
40848 42662 62505 10288 21040 38516 40070 53002 83206 333 10320
83835 86270 555 10132 29012 66666 00318 10308 20268 30238 50228
90210=
40855 42665 82302 10186 21014 37798 40091 58003 8342/ 333 10240
83640 88460 555 10090 29026 66666 00258 10280 20220 30190 50186
90160=
40859 42660 31802 10306 20025 38689 40044 56005 83400 333 10332
83640 555 10156 29017 66666 00320 10294 20260 30244 50232 90218=
40861 42960 32803 10330 20016 39170 40078 56003 80006 333 10362
83269 555 10166 29014 66666 00354 10336 20302 30284 50270 90254=
40862 42660 30802 10316 20072 38897 40064 55002 83400 333 10350
83640 555 10176 29022 66666 00346 10332 20312 30296 50280 90268=
40864 42960 23303 10344 20001 39212 40063 55004 80001 333 10376
82070 555 10168 29011 66666 00374 10350 20314 30290 50284 90264=
40869 42660 30604 10268 20006 38381 40073 53001 83400 333 10306
83640 555 10134 29018 66666 00334 10350 20290 30264 50244 90230=
40873 42962 00000 10348 20021 39192 40049 56006 333 10380 555
10174 29013 66666 00398 10388 20360 30356 50300 90284=
88184 NIL=
88190 42960 02503 10356 20126 39634 40080 53002 333 10406 555
10214 29025 66666 00392 10368 20344 30320 50308 90298=
99516 42565 70602 10188 20014 37873 40122 53005 83370 333 10234
82930 81640 84360 555 10100 29031 66666 00210 10208 20206 30192
50190 90172=
99561 42670 60000 10186 20017 37825 40116 57009 84302 333 10236
81940 83640 84070 555 10100 29032 66666 00216 10218 20206 30198
50188 90176=
99566 42960 52703 10220 20027 37852 40091 55002 80006 333 10244
85269 555 10118 29028 66666 00260 10252 20214 30200 50188 90164=
99575 42660 70305 10262 20046 38411 40095 55000 85306 333 10326
81935 81835 83640 87269 555 10144 29025 66666 00299 10274 20252
30214 50211 90192=
99579 42660 40206 10258 20014 38348 40084 53011 84400 333 10312
84640 555 10132 29020 66666 00314 10296 20280 30252 50236 90220=
99580 42960 32002 10326 20017 39044 40095 55000 80001
333 10360 83070 555 10164 29014
66666 00346 10330 20302 30272 50260 90246=
99590 42660 32003 10338 21037 38978 40070 55003 83400 333 10368
83645 555 10156 29009 66666 00380 10392 20334 30306 50284 90270=
99597 42665 53402 10284 20018 38450 40064 53001 85300 333 10326
81935 84640 555 10144 29018 66666 00314 10308 20276 30264 50250
90226=
99601 46/// /3501 10319 20042 39101 40054 55001 333 10378 555
10169 29017 66666 00367 1//// 2//// 3//// 5//// 9////=
99607 42660 20000 10270 20039 38284 40030 55004 82450 333 10300
82635 555 10144 29023 66666 00338 10320 20290 30260 50242 90220=
99612 42660 32403 10302 20001 38624 40017 56007 83400 333 10330
83640 555 10148 29014 66666 00330 10320 20290 30272 50260 90250=
99630 42960 42602 10282 20043 38650 40087 55002 80001 333 10318
84070 555 10152 29022 66666 00342 10330 20276 30262 50252 90234=
99634 42960 12602 10358 20043 39242 40040 53002 80001 333 10380
81070 66666 00400 10366 20300 30296 50288 90276 555 10184 29014 =
99638 42960 02305 10358 21009 39326 40053 55002 333 10392
555 10172 29010 66666 00404 10376 20342 30322 50306 90292=
99646 42963 10000 10322 20060 38917 40069 55004 81030 333 10350
81360 555 10174 29019 66666 00378 10336 20300 30280 50272 90258=
Ix=2 ولي گروه هوا گزارش شده است
فارس
2018-05-22 15:00:00.0
SIIR41 OISS 221500
AAXX 22151
46/// /2503 10343 20011 3//// 4//// 5//// 333 10382 555 1//// 29012 66666 0//// 1//// 2//// 3//// 5//// 9////=
اشکال در ساختار پیام یا گروه
هرمزگان
PAAD
2018-05-22 15:00:00.0
SAIR48 OIBA 221500 METAR OIBA 221500Z 30008KT 4000 HZ NSC 30/24 Q1007=
زمان هدر پيام خيلي زود است